Time;durP1;ratioP1;P1;durP2;ratioP2;P2;SDS_P1;SDS_P2;PMS_P1;PMS_P2;Temp;Humidity;BMP_temperature;BMP_pressure;BME280_temperature;BME280_humidity;BME280_pressure;Samples;Min_cycle;Max_cycle;Signal;HPM_P1;HPM_P2
2022/01/06 00:00:30;;;;;;;4.30;1.03;;;13.20;99.90;;;;;;5014156;28;20184;-69
2022/01/06 00:02:57;;;;;;;3.00;1.07;;;13.30;99.90;;;;;;5034916;28;20262;-69
2022/01/06 00:05:24;;;;;;;4.80;1.30;;;13.30;99.90;;;;;;5003231;28;20226;-67
2022/01/06 00:07:50;;;;;;;3.07;0.97;;;13.30;99.90;;;;;;5004127;28;20229;-68
2022/01/06 00:10:17;;;;;;;2.60;0.90;;;13.30;99.90;;;;;;5035042;28;20211;-69
2022/01/06 00:13:05;;;;;;;3.67;1.33;;;13.30;99.90;;;;;;5009176;28;20261;-69
2022/01/06 00:25:48;;;;;;;3.97;1.20;;;13.30;99.90;;;;;;5045220;28;20237;-65
2022/01/06 00:28:15;;;;;;;5.40;1.40;;;13.30;99.90;;;;;;5037242;28;20418;-66
2022/01/06 00:30:41;;;;;;;4.27;1.17;;;13.30;99.90;;;;;;5029059;28;20184;-65
2022/01/06 00:33:08;;;;;;;4.40;1.23;;;13.30;99.90;;;;;;5020852;28;20287;-65
2022/01/06 00:35:35;;;;;;;2.53;0.90;;;13.30;99.90;;;;;;5056447;28;20190;-65
2022/01/06 00:38:01;;;;;;;6.67;1.40;;;13.30;99.90;;;;;;5022358;28;20190;-65
2022/01/06 00:40:27;;;;;;;2.23;1.00;;;13.30;99.90;;;;;;5031781;28;20183;-65
2022/01/06 00:42:53;;;;;;;1.33;0.80;;;13.30;99.90;;;;;;5022621;28;20227;-65
2022/01/06 00:45:20;;;;;;;2.43;1.00;;;13.30;99.90;;;;;;5025134;28;20993;-65
2022/01/06 00:47:46;;;;;;;3.33;1.20;;;13.30;99.90;;;;;;5036910;28;20241;-65
2022/01/06 00:50:12;;;;;;;5.77;1.20;;;13.30;99.90;;;;;;5031224;28;20184;-65
2022/01/06 00:52:38;;;;;;;6.43;1.53;;;13.30;99.90;;;;;;5054879;28;20273;-65
2022/01/06 00:55:06;;;;;;;3.33;1.20;;;13.30;99.90;;;;;;5029404;28;20194;-66
2022/01/06 00:57:35;;;;;;;3.67;1.00;;;13.30;99.90;;;;;;5031102;28;20187;-66
2022/01/06 01:00:03;;;;;;;2.20;1.00;;;13.30;99.90;;;;;;5020608;28;20243;-66
2022/01/06 01:02:29;;;;;;;7.80;1.30;;;13.40;99.90;;;;;;5017417;28;20697;-66
2022/01/06 01:04:56;;;;;;;2.20;1.03;;;13.30;99.90;;;;;;5032226;28;20197;-65
2022/01/06 01:07:22;;;;;;;4.90;1.10;;;13.40;99.90;;;;;;5027671;28;20191;-65
2022/01/06 01:09:48;;;;;;;4.80;0.90;;;13.40;99.90;;;;;;5035213;28;20241;-66
2022/01/06 01:12:15;;;;;;;3.47;1.40;;;13.40;99.90;;;;;;5054093;28;20253;-66
2022/01/06 01:15:23;;;;;;;2.73;1.00;;;13.40;99.90;;;;;;5019301;28;20187;-66
2022/01/06 01:17:32;;;;;;;4.87;1.23;;;13.40;99.90;;;;;;5034663;28;20288;-65
2022/01/06 01:19:58;;;;;;;6.30;1.30;;;13.40;99.90;;;;;;5035453;28;20265;-65
2022/01/06 01:22:25;;;;;;;2.43;1.03;;;13.40;99.90;;;;;;5029472;28;20191;-65
2022/01/06 01:24:51;;;;;;;2.27;1.00;;;13.40;99.90;;;;;;5062240;28;20179;-64
2022/01/06 01:27:22;;;;;;;4.70;1.00;;;13.40;99.90;;;;;;5044716;28;20201;-66
2022/01/06 01:30:04;;;;;;;3.33;1.07;;;13.40;99.90;;;;;;5043318;28;20636;-65
2022/01/06 01:32:36;;;;;;;1.63;0.87;;;13.40;99.90;;;;;;5030950;28;20222;-66
2022/01/06 01:35:07;;;;;;;4.23;0.90;;;13.50;99.90;;;;;;5025642;28;20191;-65
2022/01/06 01:37:34;;;;;;;4.30;1.33;;;13.50;99.90;;;;;;5027454;28;20188;-65
2022/01/06 01:40:08;;;;;;;2.67;0.97;;;13.50;99.90;;;;;;5036114;28;20209;-65
2022/01/06 01:42:35;;;;;;;4.27;1.07;;;13.50;99.90;;;;;;5025741;28;21088;-65
2022/01/06 01:45:06;;;;;;;3.90;1.00;;;13.50;99.90;;;;;;5030399;28;20311;-65
2022/01/06 01:47:43;;;;;;;3.10;0.90;;;13.50;99.90;;;;;;5035749;28;20195;-65
2022/01/06 01:50:16;;;;;;;4.37;1.43;;;13.50;99.90;;;;;;5030565;28;20195;-65
2022/01/06 01:52:52;;;;;;;5.07;1.10;;;13.50;99.90;;;;;;5031111;28;20210;-65
2022/01/06 01:55:26;;;;;;;4.70;1.20;;;13.50;99.90;;;;;;5041251;28;20183;-65
2022/01/06 01:57:56;;;;;;;5.27;1.30;;;13.50;99.90;;;;;;5030238;28;20226;-65
2022/01/06 02:00:28;;;;;;;11.37;1.53;;;13.40;99.90;;;;;;5016910;28;20745;-65
2022/01/06 02:02:55;;;;;;;5.37;1.23;;;13.40;99.90;;;;;;5044523;28;20681;-65
2022/01/06 02:05:28;;;;;;;4.50;1.03;;;13.40;99.90;;;;;;5030708;28;20196;-65
2022/01/06 02:08:00;;;;;;;2.97;1.10;;;13.30;99.90;;;;;;5043532;28;20194;-66
2022/01/06 02:10:30;;;;;;;4.17;1.10;;;13.30;99.90;;;;;;5030873;28;20195;-65
2022/01/06 02:12:57;;;;;;;1.77;0.90;;;13.30;99.90;;;;;;5046170;28;20217;-65
2022/01/06 02:15:25;;;;;;;7.63;1.23;;;13.40;99.90;;;;;;5031558;28;20211;-65
2022/01/06 02:17:51;;;;;;;3.40;1.03;;;13.40;99.90;;;;;;5030769;28;20188;-65
2022/01/06 02:20:21;;;;;;;4.90;1.13;;;13.40;99.90;;;;;;5025420;28;21223;-65
2022/01/06 02:22:50;;;;;;;4.10;1.10;;;13.40;99.90;;;;;;5021920;28;20191;-65
2022/01/06 02:25:18;;;;;;;4.23;1.00;;;13.40;99.90;;;;;;5039882;28;20701;-65
2022/01/06 02:27:51;;;;;;;3.37;1.10;;;13.40;99.90;;;;;;5030568;28;20647;-64
2022/01/06 02:30:19;;;;;;;5.67;1.10;;;13.40;99.90;;;;;;5040680;28;20191;-65
2022/01/06 02:32:47;;;;;;;2.57;1.07;;;13.40;99.90;;;;;;5045282;28;20219;-67
2022/01/06 02:35:17;;;;;;;4.70;1.13;;;13.40;99.90;;;;;;5047890;28;20187;-67
2022/01/06 02:37:44;;;;;;;6.07;1.87;;;13.40;99.90;;;;;;5028537;28;20190;-67
2022/01/06 02:40:21;;;;;;;4.77;1.17;;;13.40;99.90;;;;;;5030403;28;20180;-66
2022/01/06 02:42:55;;;;;;;5.67;1.43;;;13.40;99.90;;;;;;5019466;28;20294;-66
2022/01/06 02:45:26;;;;;;;3.77;1.37;;;13.40;99.90;;;;;;5046414;28;20786;-66
2022/01/06 02:47:54;;;;;;;6.77;1.43;;;13.40;99.90;;;;;;5034884;28;20192;-67
2022/01/06 02:50:22;;;;;;;3.53;1.07;;;13.40;99.90;;;;;;5021421;28;20329;-67
2022/01/06 02:52:48;;;;;;;3.97;1.20;;;13.40;99.90;;;;;;5019619;28;20294;-67
2022/01/06 02:55:15;;;;;;;4.97;1.10;;;13.40;99.90;;;;;;5025843;28;20544;-67
2022/01/06 02:57:44;;;;;;;3.77;1.20;;;13.40;99.90;;;;;;5053316;28;20189;-67
2022/01/06 03:00:14;;;;;;;6.10;1.67;;;13.40;99.90;;;;;;5021052;28;20346;-67
2022/01/06 03:02:43;;;;;;;3.43;1.00;;;13.40;99.90;;;;;;5037618;28;20209;-67
2022/01/06 03:05:11;;;;;;;6.17;1.30;;;13.40;99.90;;;;;;5031842;28;20198;-67
2022/01/06 03:07:37;;;;;;;3.23;1.20;;;13.40;99.90;;;;;;5013984;28;20223;-67
2022/01/06 03:10:12;;;;;;;5.40;1.00;;;13.40;99.90;;;;;;5048137;28;20192;-68
2022/01/06 03:12:43;;;;;;;3.47;1.10;;;13.40;99.90;;;;;;5023604;28;20975;-68
2022/01/06 03:15:20;;;;;;;7.87;1.70;;;13.40;99.90;;;;;;5044936;28;20187;-68
2022/01/06 03:17:57;;;;;;;3.10;1.10;;;13.40;99.90;;;;;;5041916;28;20274;-68
2022/01/06 03:20:27;;;;;;;5.33;1.47;;;13.40;99.90;;;;;;5035278;28;20214;-68
2022/01/06 03:22:55;;;;;;;3.80;1.30;;;13.50;99.90;;;;;;5046063;28;20188;-68
2022/01/06 03:25:22;;;;;;;3.90;1.40;;;13.50;99.90;;;;;;5027752;28;20207;-68
2022/01/06 03:27:49;;;;;;;4.20;1.33;;;13.50;99.90;;;;;;5047293;28;20321;-68
2022/01/06 03:30:19;;;;;;;3.40;1.10;;;13.50;99.90;;;;;;5025588;28;20194;-68
2022/01/06 03:32:46;;;;;;;3.93;0.93;;;13.40;99.90;;;;;;5026267;28;20246;-68
2022/01/06 03:35:17;;;;;;;4.40;1.47;;;13.50;99.90;;;;;;5053781;28;20185;-68
2022/01/06 03:37:44;;;;;;;3.30;1.07;;;13.50;99.90;;;;;;5029428;28;20187;-67
2022/01/06 03:40:11;;;;;;;4.63;1.23;;;13.50;99.90;;;;;;5019589;28;20199;-67
2022/01/06 03:42:39;;;;;;;12.10;1.37;;;13.40;99.90;;;;;;5025708;28;20624;-67
2022/01/06 03:45:10;;;;;;;6.03;1.37;;;13.40;99.90;;;;;;5033450;28;20282;-67
2022/01/06 03:47:37;;;;;;;4.23;1.33;;;13.40;99.90;;;;;;5051579;28;20187;-67
2022/01/06 03:50:05;;;;;;;4.27;1.10;;;13.40;99.90;;;;;;5027022;28;20219;-66
2022/01/06 03:52:32;;;;;;;4.90;1.27;;;13.40;99.90;;;;;;5033601;28;20208;-66
2022/01/06 03:54:59;;;;;;;3.23;1.00;;;13.40;99.90;;;;;;5035374;28;20277;-69
2022/01/06 03:57:25;;;;;;;8.30;2.03;;;13.40;99.90;;;;;;5051416;28;20186;-70
2022/01/06 03:59:51;;;;;;;6.57;1.53;;;13.40;99.90;;;;;;5024082;28;20731;-69
2022/01/06 04:02:18;;;;;;;5.37;1.13;;;13.40;99.90;;;;;;5023469;28;20208;-69
2022/01/06 04:04:44;;;;;;;3.60;1.13;;;13.40;99.90;;;;;;5018725;28;20909;-69
2022/01/06 04:07:10;;;;;;;4.03;1.23;;;13.40;99.90;;;;;;5031045;28;20187;-69
2022/01/06 04:09:37;;;;;;;6.13;1.37;;;13.40;99.90;;;;;;5034001;28;20195;-70
2022/01/06 04:12:03;;;;;;;7.13;1.20;;;13.50;99.90;;;;;;5029729;28;20242;-69
2022/01/06 04:14:30;;;;;;;4.07;1.30;;;13.40;99.90;;;;;;5045388;28;20187;-67
2022/01/06 04:16:59;;;;;;;3.93;1.30;;;13.40;99.90;;;;;;5028207;28;20179;-66
2022/01/06 04:19:27;;;;;;;4.50;0.90;;;13.40;99.90;;;;;;5041169;28;20187;-66
2022/01/06 04:21:54;;;;;;;5.23;1.20;;;13.40;99.90;;;;;;5055631;28;20201;-68
2022/01/06 04:24:20;;;;;;;4.93;1.17;;;13.40;99.90;;;;;;5034644;28;20681;-67
2022/01/06 04:26:47;;;;;;;6.20;1.20;;;13.40;99.90;;;;;;5030198;28;20208;-68
2022/01/06 04:29:13;;;;;;;2.17;1.00;;;13.40;99.90;;;;;;5025499;28;20636;-67
2022/01/06 04:31:39;;;;;;;4.87;1.30;;;13.40;99.90;;;;;;5016401;28;20299;-67
2022/01/06 04:34:05;;;;;;;4.50;1.27;;;13.40;99.90;;;;;;5012226;28;20754;-68
2022/01/06 04:36:32;;;;;;;4.03;1.37;;;13.40;99.90;;;;;;5029743;28;20202;-68
2022/01/06 04:38:58;;;;;;;4.43;1.53;;;13.40;99.90;;;;;;5045915;28;20835;-69
2022/01/06 04:41:24;;;;;;;3.80;1.10;;;13.40;99.90;;;;;;5028808;28;20190;-69
2022/01/06 04:43:51;;;;;;;4.77;1.43;;;13.40;99.90;;;;;;5009356;28;20616;-69
2022/01/06 04:46:19;;;;;;;5.00;1.30;;;13.50;99.90;;;;;;5034295;28;20195;-70
2022/01/06 04:48:45;;;;;;;2.17;1.13;;;13.50;99.90;;;;;;5047091;28;20186;-71
2022/01/06 04:51:12;;;;;;;2.73;1.00;;;13.50;99.90;;;;;;5021664;28;20234;-70
2022/01/06 04:53:38;;;;;;;6.60;1.30;;;13.50;99.90;;;;;;5015994;28;20674;-70
2022/01/06 04:56:04;;;;;;;3.33;1.33;;;13.50;99.90;;;;;;5032549;28;20220;-71
2022/01/06 04:58:33;;;;;;;5.40;1.20;;;13.50;99.90;;;;;;5033385;28;20690;-67
2022/01/06 05:00:59;;;;;;;4.07;1.23;;;13.50;99.90;;;;;;5045127;28;20278;-67
2022/01/06 05:03:25;;;;;;;4.90;1.30;;;13.50;99.90;;;;;;5035187;28;20227;-66
2022/01/06 05:05:52;;;;;;;3.60;1.20;;;13.50;99.90;;;;;;5015048;28;20651;-67
2022/01/06 05:08:18;;;;;;;6.13;1.33;;;13.50;99.90;;;;;;5023614;28;20191;-66
2022/01/06 05:10:44;;;;;;;4.77;1.20;;;13.50;99.90;;;;;;5032438;28;20184;-66
2022/01/06 05:13:11;;;;;;;3.50;1.30;;;13.50;99.90;;;;;;5033939;28;20731;-67
2022/01/06 05:15:37;;;;;;;6.47;1.10;;;13.50;99.90;;;;;;5015526;28;20822;-66
2022/01/06 05:18:04;;;;;;;4.97;1.10;;;13.50;99.90;;;;;;5045408;28;20189;-66
2022/01/06 05:20:30;;;;;;;2.53;1.00;;;13.50;99.90;;;;;;5029757;28;20180;-66
2022/01/06 05:22:58;;;;;;;4.27;1.20;;;13.50;99.90;;;;;;5050512;28;20212;-66
2022/01/06 05:25:27;;;;;;;4.03;1.07;;;13.50;99.90;;;;;;5053468;28;20277;-66
2022/01/06 05:27:54;;;;;;;1.87;0.90;;;13.50;99.90;;;;;;5027767;28;20215;-66
2022/01/06 05:30:22;;;;;;;3.43;1.10;;;13.50;99.90;;;;;;5040033;28;20195;-66
2022/01/06 05:32:48;;;;;;;3.77;1.10;;;13.50;99.90;;;;;;5014510;28;20226;-66
2022/01/06 05:35:15;;;;;;;1.50;0.93;;;13.50;99.90;;;;;;5022782;28;20645;-66
2022/01/06 05:37:41;;;;;;;3.67;0.77;;;13.50;99.90;;;;;;5044335;28;20187;-66
2022/01/06 05:40:08;;;;;;;3.93;1.00;;;13.50;99.90;;;;;;5062108;28;20241;-66
2022/01/06 05:42:35;;;;;;;3.67;1.27;;;13.50;99.90;;;;;;5049277;28;20192;-66
2022/01/06 05:45:01;;;;;;;4.17;1.20;;;13.50;99.90;;;;;;5039566;28;20322;-66
2022/01/06 05:47:27;;;;;;;5.03;1.10;;;13.50;99.90;;;;;;5051089;28;20203;-66
2022/01/06 05:49:53;;;;;;;3.53;1.10;;;13.50;99.90;;;;;;5044810;28;20184;-66
2022/01/06 05:52:20;;;;;;;5.30;1.10;;;13.50;99.90;;;;;;5038397;28;20196;-67
2022/01/06 05:54:46;;;;;;;6.80;0.97;;;13.50;99.90;;;;;;5032464;28;20244;-66
2022/01/06 05:57:13;;;;;;;3.57;1.00;;;13.50;99.90;;;;;;5046221;28;20180;-66
2022/01/06 05:59:40;;;;;;;2.47;1.00;;;13.50;99.90;;;;;;5012382;28;20187;-66
2022/01/06 06:02:06;;;;;;;2.40;1.17;;;13.50;99.90;;;;;;5045390;28;20306;-66
2022/01/06 06:04:32;;;;;;;2.67;0.90;;;13.50;99.90;;;;;;5023819;28;20191;-66
2022/01/06 06:06:58;;;;;;;3.00;1.00;;;13.50;99.90;;;;;;5048045;28;20195;-67
2022/01/06 06:09:25;;;;;;;3.07;0.90;;;13.50;99.90;;;;;;5028908;28;20484;-63
2022/01/06 06:11:51;;;;;;;2.30;0.97;;;13.50;99.90;;;;;;5037079;28;20211;-64
2022/01/06 06:14:18;;;;;;;2.90;1.13;;;13.50;99.90;;;;;;5044011;28;20191;-64
2022/01/06 06:16:44;;;;;;;6.03;1.13;;;13.60;99.90;;;;;;5017879;28;20178;-64
2022/01/06 06:19:10;;;;;;;2.17;1.00;;;13.60;99.90;;;;;;5023742;28;20194;-64
2022/01/06 06:21:37;;;;;;;3.53;0.70;;;13.60;99.90;;;;;;5049490;28;20203;-64
2022/01/06 06:24:05;;;;;;;2.53;0.80;;;13.60;99.90;;;;;;5045973;28;20644;-64
2022/01/06 06:26:31;;;;;;;2.37;0.80;;;13.60;99.90;;;;;;5057438;28;20583;-66
2022/01/06 06:28:58;;;;;;;3.70;0.93;;;13.70;99.90;;;;;;4998575;28;20653;-65
2022/01/06 06:31:24;;;;;;;4.60;0.90;;;13.70;99.90;;;;;;5042786;28;20668;-65
2022/01/06 06:33:51;;;;;;;3.13;1.00;;;13.80;99.90;;;;;;5020129;28;20217;-65
2022/01/06 06:36:17;;;;;;;1.93;0.90;;;13.80;99.90;;;;;;5036778;28;20248;-65
2022/01/06 06:38:44;;;;;;;4.23;1.07;;;13.80;99.90;;;;;;5051341;28;20184;-65
2022/01/06 06:41:10;;;;;;;4.70;1.00;;;13.90;99.90;;;;;;5012201;28;20282;-65
2022/01/06 06:43:36;;;;;;;1.37;0.90;;;13.90;99.90;;;;;;5039690;28;20196;-65
2022/01/06 06:46:02;;;;;;;4.00;1.37;;;14.00;99.90;;;;;;5035927;28;20192;-65
2022/01/06 06:48:29;;;;;;;3.17;1.30;;;14.00;99.90;;;;;;5040372;28;20559;-65
2022/01/06 06:50:55;;;;;;;3.27;1.10;;;14.00;99.90;;;;;;5012311;28;20198;-65
2022/01/06 06:53:21;;;;;;;4.47;1.40;;;14.00;99.90;;;;;;5038227;28;20210;-64
2022/01/06 06:55:48;;;;;;;3.43;1.07;;;14.10;99.90;;;;;;5026144;28;20187;-65
2022/01/06 06:58:14;;;;;;;5.83;1.23;;;14.10;99.90;;;;;;5031947;28;20187;-64
2022/01/06 07:00:41;;;;;;;4.10;1.20;;;14.10;99.90;;;;;;5024363;28;20198;-64
2022/01/06 07:03:08;;;;;;;2.70;0.93;;;14.20;99.90;;;;;;5036014;28;20203;-65
2022/01/06 07:05:35;;;;;;;2.30;1.10;;;14.20;99.90;;;;;;5038259;28;20260;-65
2022/01/06 07:08:01;;;;;;;6.50;1.30;;;14.20;99.90;;;;;;5028432;28;20187;-64
2022/01/06 07:10:28;;;;;;;2.27;0.80;;;14.20;99.90;;;;;;5046941;28;20230;-64
2022/01/06 07:12:54;;;;;;;2.27;0.90;;;14.20;99.90;;;;;;5039781;28;20238;-65
2022/01/06 07:15:21;;;;;;;2.40;0.93;;;14.30;99.90;;;;;;5037374;28;20218;-65
2022/01/06 07:17:47;;;;;;;2.43;1.10;;;14.30;99.90;;;;;;5037473;28;20215;-64
2022/01/06 07:20:14;;;;;;;1.50;0.80;;;14.30;99.90;;;;;;5047693;28;20176;-66
2022/01/06 07:22:43;;;;;;;3.07;0.80;;;14.40;99.90;;;;;;5035265;28;20244;-66
2022/01/06 07:25:10;;;;;;;3.17;0.97;;;14.40;99.90;;;;;;5055267;28;20232;-66
2022/01/06 07:27:37;;;;;;;2.67;0.80;;;14.50;99.90;;;;;;5033689;28;20190;-67
2022/01/06 07:30:06;;;;;;;3.67;1.00;;;14.50;99.90;;;;;;5028461;28;20214;-67
2022/01/06 07:32:32;;;;;;;4.70;1.23;;;14.50;99.90;;;;;;5050846;28;20211;-66
2022/01/06 07:34:58;;;;;;;3.00;0.83;;;14.50;99.90;;;;;;5042639;28;20610;-67
2022/01/06 07:37:24;;;;;;;3.97;1.20;;;14.60;99.90;;;;;;5054851;28;20191;-66
2022/01/06 07:39:51;;;;;;;4.47;1.00;;;14.60;99.90;;;;;;5024421;28;20215;-66
2022/01/06 07:42:17;;;;;;;5.27;0.87;;;14.60;99.90;;;;;;5033413;28;20294;-67
2022/01/06 07:44:46;;;;;;;2.90;1.20;;;14.70;99.90;;;;;;5028225;28;20216;-66
2022/01/06 07:47:14;;;;;;;3.57;1.20;;;14.70;99.90;;;;;;5053853;28;20183;-67
2022/01/06 07:49:41;;;;;;;2.73;1.07;;;14.70;99.90;;;;;;5049870;28;20198;-66
2022/01/06 07:52:08;;;;;;;5.17;0.93;;;14.80;99.90;;;;;;5035794;28;21125;-67
2022/01/06 07:54:35;;;;;;;2.87;1.33;;;14.80;99.90;;;;;;5025319;28;20184;-66
2022/01/06 07:57:01;;;;;;;3.87;0.87;;;14.80;99.90;;;;;;5035179;28;20194;-66
2022/01/06 07:59:27;;;;;;;6.10;1.40;;;14.80;99.90;;;;;;5025100;28;20271;-67
2022/01/06 08:01:54;;;;;;;4.80;1.27;;;14.80;99.90;;;;;;5028798;28;20247;-66
2022/01/06 08:04:20;;;;;;;5.40;0.90;;;14.80;99.90;;;;;;5027661;28;20412;-66
2022/01/06 08:06:46;;;;;;;3.87;1.30;;;14.90;99.90;;;;;;5032697;28;20644;-66
2022/01/06 08:09:13;;;;;;;3.43;1.10;;;14.90;99.90;;;;;;5012304;28;20184;-67
2022/01/06 08:11:40;;;;;;;4.33;1.00;;;14.90;99.90;;;;;;5044316;28;20978;-68
2022/01/06 08:14:07;;;;;;;3.77;1.00;;;14.90;99.90;;;;;;5038185;28;20652;-67
2022/01/06 08:16:33;;;;;;;4.00;1.40;;;15.00;99.90;;;;;;5032148;28;20184;-68
2022/01/06 08:18:59;;;;;;;4.67;1.20;;;15.00;99.90;;;;;;5019806;28;20670;-67
2022/01/06 08:21:29;;;;;;;2.70;1.07;;;15.10;99.90;;;;;;5028592;28;20282;-67
2022/01/06 08:23:55;;;;;;;2.27;0.83;;;15.10;99.90;;;;;;5012247;28;20575;-69
2022/01/06 08:26:21;;;;;;;3.90;1.20;;;15.10;99.90;;;;;;5027540;28;20202;-69
2022/01/06 08:28:48;;;;;;;2.90;1.00;;;15.10;99.90;;;;;;5023334;28;20199;-69
2022/01/06 08:31:16;;;;;;;6.17;1.40;;;15.10;99.90;;;;;;5026889;28;20298;-69
2022/01/06 08:33:44;;;;;;;4.47;1.10;;;15.10;99.90;;;;;;5007022;28;20290;-69
2022/01/06 08:36:10;;;;;;;2.40;1.10;;;15.10;99.90;;;;;;5005898;28;20191;-69
2022/01/06 08:38:38;;;;;;;4.70;1.10;;;15.20;99.90;;;;;;5018820;28;20291;-69
2022/01/06 08:41:04;;;;;;;3.57;1.10;;;15.20;99.90;;;;;;5039359;28;20730;-69
2022/01/06 08:43:31;;;;;;;3.87;1.10;;;15.20;99.90;;;;;;5044771;28;20679;-69
2022/01/06 08:45:58;;;;;;;3.20;1.10;;;15.20;99.90;;;;;;5037141;28;20238;-69
2022/01/06 08:48:26;;;;;;;2.93;1.20;;;15.20;99.90;;;;;;5019794;28;20197;-69
2022/01/06 08:50:54;;;;;;;4.13;1.23;;;15.30;99.90;;;;;;5037856;28;20195;-69
2022/01/06 08:53:22;;;;;;;3.43;1.00;;;15.30;99.90;;;;;;5029550;28;20209;-69
2022/01/06 08:55:48;;;;;;;4.20;1.43;;;15.40;99.90;;;;;;5030296;28;20183;-70
2022/01/06 08:58:16;;;;;;;2.83;1.10;;;15.40;99.90;;;;;;5044534;28;20187;-69
2022/01/06 09:00:43;;;;;;;3.67;1.20;;;15.50;99.90;;;;;;5026780;28;20306;-69
2022/01/06 09:03:10;;;;;;;5.60;1.50;;;15.50;99.90;;;;;;5040793;28;20732;-70
2022/01/06 09:05:38;;;;;;;4.80;1.77;;;15.50;99.90;;;;;;5026243;28;20631;-69
2022/01/06 09:08:06;;;;;;;6.30;1.43;;;15.60;99.90;;;;;;5023545;28;20246;-69
2022/01/06 09:10:34;;;;;;;2.33;1.17;;;15.60;99.90;;;;;;5041640;28;20219;-69
2022/01/06 09:13:02;;;;;;;5.10;1.40;;;15.60;99.90;;;;;;5049050;28;20246;-69
2022/01/06 09:15:28;;;;;;;5.87;1.10;;;15.70;99.90;;;;;;5050022;28;20195;-69
2022/01/06 09:17:57;;;;;;;2.87;1.30;;;15.70;99.90;;;;;;5037146;28;20183;-69
2022/01/06 09:20:24;;;;;;;5.40;1.50;;;15.70;99.90;;;;;;5052206;28;20282;-69
2022/01/06 09:22:50;;;;;;;3.33;1.20;;;15.70;99.90;;;;;;5016677;28;20676;-69
2022/01/06 09:25:17;;;;;;;3.27;1.30;;;15.80;99.90;;;;;;5042903;28;20225;-69
2022/01/06 09:27:43;;;;;;;3.27;1.20;;;15.80;99.90;;;;;;5029427;28;20322;-69
2022/01/06 09:30:12;;;;;;;2.77;1.17;;;15.80;99.90;;;;;;5031552;28;20202;-70
2022/01/06 09:32:39;;;;;;;1.97;1.07;;;15.90;99.90;;;;;;5049166;28;20846;-70
2022/01/06 09:35:06;;;;;;;4.97;1.33;;;15.90;99.90;;;;;;5032264;28;20203;-70
2022/01/06 09:37:32;;;;;;;4.97;1.10;;;16.00;99.90;;;;;;5028050;28;20180;-69
2022/01/06 09:39:59;;;;;;;6.07;1.20;;;16.00;99.90;;;;;;5030133;28;20196;-70
2022/01/06 09:42:25;;;;;;;3.10;1.10;;;16.00;99.90;;;;;;5045837;28;20631;-70
2022/01/06 09:44:53;;;;;;;6.97;1.23;;;16.00;99.90;;;;;;5029177;28;20992;-69
2022/01/06 09:47:22;;;;;;;1.80;1.00;;;16.00;99.90;;;;;;5021664;28;20717;-69
2022/01/06 09:49:49;;;;;;;1.97;1.00;;;16.10;99.90;;;;;;5051480;28;20191;-70
2022/01/06 09:52:19;;;;;;;6.67;1.20;;;16.10;99.90;;;;;;5021078;28;20690;-70
2022/01/06 09:54:46;;;;;;;2.40;0.93;;;16.10;99.90;;;;;;5028089;28;20627;-70
2022/01/06 09:57:14;;;;;;;3.53;1.13;;;16.10;99.90;;;;;;5048899;28;20196;-69
2022/01/06 09:59:43;;;;;;;2.53;0.97;;;16.20;99.90;;;;;;5026478;28;20281;-69
2022/01/06 10:02:16;;;;;;;2.80;1.20;;;16.20;99.90;;;;;;5025702;28;20250;-70
2022/01/06 10:04:45;;;;;;;6.37;1.20;;;16.20;99.90;;;;;;5005035;28;20685;-69
2022/01/06 10:07:15;;;;;;;2.37;1.00;;;16.30;99.90;;;;;;5033716;28;20532;-70
2022/01/06 10:09:42;;;;;;;4.33;1.57;;;16.20;99.90;;;;;;5042266;28;20283;-70
2022/01/06 10:12:13;;;;;;;2.33;0.80;;;16.30;99.90;;;;;;5029525;28;20356;-70
2022/01/06 10:14:47;;;;;;;3.13;1.00;;;16.30;99.90;;;;;;5020750;28;20183;-70
2022/01/06 10:17:30;;;;;;;1.93;0.97;;;16.40;99.90;;;;;;5038943;28;20195;-70
2022/01/06 10:20:07;;;;;;;3.03;0.97;;;16.40;99.90;;;;;;5028444;28;20188;-69
2022/01/06 10:22:49;;;;;;;2.80;1.00;;;16.40;99.90;;;;;;5017475;28;20285;-69
2022/01/06 10:25:17;;;;;;;2.53;1.10;;;16.40;99.90;;;;;;5037709;28;20246;-69
2022/01/06 10:27:49;;;;;;;2.47;0.90;;;16.40;99.90;;;;;;5031972;28;20198;-70
2022/01/06 10:30:16;;;;;;;3.23;0.80;;;16.40;99.90;;;;;;5023174;28;20195;-69
2022/01/06 10:32:44;;;;;;;5.00;1.10;;;16.40;99.90;;;;;;5007084;28;20219;-69
2022/01/06 10:35:17;;;;;;;3.60;1.17;;;16.40;99.90;;;;;;5030596;28;20191;-69
2022/01/06 10:37:48;;;;;;;2.93;0.90;;;16.40;99.90;;;;;;5025449;28;20548;-69
2022/01/06 10:40:26;;;;;;;4.90;1.20;;;16.40;99.90;;;;;;5043865;28;20192;-70
2022/01/06 10:42:57;;;;;;;3.90;1.17;;;16.40;99.90;;;;;;5012727;28;20199;-70
2022/01/06 10:45:29;;;;;;;2.27;0.97;;;16.40;99.90;;;;;;5034293;28;20218;-70
2022/01/06 10:48:03;;;;;;;3.50;1.30;;;16.40;99.90;;;;;;5022082;28;20197;-70
2022/01/06 10:50:37;;;;;;;4.30;1.03;;;16.40;99.90;;;;;;5025682;28;20662;-69
2022/01/06 10:53:12;;;;;;;8.10;2.10;;;16.40;99.90;;;;;;5045753;28;20227;-69
2022/01/06 10:55:43;;;;;;;8.10;3.03;;;16.40;99.90;;;;;;5025541;28;20214;-69
2022/01/06 10:58:19;;;;;;;3.57;2.33;;;16.30;99.90;;;;;;5025242;28;22080;-70
2022/01/06 11:01:02;;;;;;;7.17;2.30;;;16.30;99.90;;;;;;5027843;28;20195;-69
2022/01/06 11:03:34;;;;;;;5.63;1.80;;;16.20;99.90;;;;;;5006135;28;20207;-69
2022/01/06 11:06:03;;;;;;;4.23;1.90;;;16.20;99.90;;;;;;5028397;28;20203;-69
2022/01/06 11:08:39;;;;;;;3.23;1.70;;;16.10;99.90;;;;;;5027110;28;20282;-69
2022/01/06 11:13:49;;;;;;;2.93;1.50;;;16.00;99.90;;;;;;5044407;28;20756;-69
2022/01/06 11:16:19;;;;;;;4.30;1.43;;;16.00;99.90;;;;;;5011221;28;20622;-69
2022/01/06 11:18:59;;;;;;;2.90;1.10;;;16.00;99.90;;;;;;5045622;28;20195;-69
2022/01/06 11:21:48;;;;;;;3.20;1.33;;;15.90;99.90;;;;;;5027594;28;20722;-70
2022/01/06 11:24:23;;;;;;;4.53;1.50;;;15.90;99.90;;;;;;5013897;28;20202;-69
2022/01/06 11:27:02;;;;;;;3.60;1.40;;;15.80;99.90;;;;;;5028585;28;20226;-69
2022/01/06 11:29:34;;;;;;;3.97;1.23;;;15.70;99.90;;;;;;5028612;28;20230;-70
2022/01/06 11:32:04;;;;;;;1.67;0.93;;;15.70;99.90;;;;;;5012373;28;20214;-69
2022/01/06 11:34:38;;;;;;;3.77;0.93;;;15.70;99.90;;;;;;5011795;28;20282;-69
2022/01/06 11:37:14;;;;;;;7.60;1.57;;;15.60;99.90;;;;;;5027360;28;20233;-69
2022/01/06 11:39:43;;;;;;;2.30;1.20;;;15.60;99.90;;;;;;5031620;28;20237;-69
2022/01/06 11:42:22;;;;;;;3.27;1.13;;;15.60;99.90;;;;;;5024368;28;20567;-70
2022/01/06 11:44:55;;;;;;;2.37;1.07;;;15.60;99.90;;;;;;5047526;28;20556;-70
2022/01/06 11:47:39;;;;;;;4.33;1.20;;;15.50;99.90;;;;;;5025066;28;20258;-69
2022/01/06 11:50:25;;;;;;;3.63;1.10;;;15.50;99.90;;;;;;5039240;28;20188;-70
2022/01/06 11:52:58;;;;;;;3.30;1.50;;;15.50;99.90;;;;;;5039051;28;20215;-70
2022/01/06 11:55:37;;;;;;;4.80;1.77;;;15.40;99.90;;;;;;5023432;28;20200;-69
2022/01/06 11:58:19;;;;;;;3.33;1.50;;;15.40;99.90;;;;;;5027511;28;20684;-69
2022/01/06 12:01:13;;;;;;;9.27;1.53;;;15.40;99.90;;;;;;5043894;28;20202;-69
2022/01/06 12:03:44;;;;;;;2.90;1.33;;;15.50;99.90;;;;;;5011208;28;20215;-69
2022/01/06 12:06:29;;;;;;;4.33;1.07;;;15.50;99.90;;;;;;5004813;28;20187;-69
2022/01/06 12:08:58;;;;;;;4.43;1.50;;;15.50;99.90;;;;;;5034645;28;20291;-69
2022/01/06 12:11:33;;;;;;;3.03;1.13;;;15.50;99.90;;;;;;5037763;28;20224;-69
2022/01/06 12:14:01;;;;;;;3.63;1.17;;;15.60;99.90;;;;;;5044215;28;20998;-69
2022/01/06 12:16:39;;;;;;;2.90;1.27;;;15.60;99.90;;;;;;5044393;28;20318;-69
2022/01/06 12:19:19;;;;;;;6.47;1.20;;;15.70;99.90;;;;;;5029978;28;20282;-69
2022/01/06 12:21:47;;;;;;;4.17;1.13;;;15.80;99.90;;;;;;5024139;28;20897;-70
2022/01/06 12:24:14;;;;;;;3.80;1.10;;;16.00;99.90;;;;;;5020879;28;20202;-69
2022/01/06 12:26:42;;;;;;;6.50;1.70;;;16.10;99.90;;;;;;5026609;28;20227;-69
2022/01/06 12:29:25;;;;;;;5.27;1.43;;;16.20;99.90;;;;;;5025639;28;20195;-70
2022/01/06 12:32:03;;;;;;;2.93;1.20;;;16.20;99.90;;;;;;5031760;28;20315;-69
2022/01/06 12:34:29;;;;;;;3.17;1.20;;;16.20;99.90;;;;;;5004854;28;20333;-69
2022/01/06 12:36:56;;;;;;;3.47;0.90;;;16.10;99.90;;;;;;5022801;28;20195;-70
2022/01/06 12:39:23;;;;;;;4.63;1.23;;;16.00;99.90;;;;;;5043609;28;20248;-69
2022/01/06 12:41:52;;;;;;;6.43;1.20;;;16.00;99.90;;;;;;5040433;28;20246;-69
2022/01/06 12:44:27;;;;;;;2.80;1.20;;;15.90;99.90;;;;;;5038016;28;20232;-70
2022/01/06 12:46:54;;;;;;;2.27;1.00;;;15.80;99.90;;;;;;5037643;28;20202;-69
2022/01/06 12:49:24;;;;;;;3.83;1.10;;;15.70;99.90;;;;;;5018957;28;20283;-69
2022/01/06 12:51:54;;;;;;;6.63;1.23;;;15.60;99.90;;;;;;5006702;28;20663;-69
2022/01/06 12:54:22;;;;;;;4.07;1.10;;;15.60;99.90;;;;;;5030639;28;20198;-70
2022/01/06 12:56:53;;;;;;;3.90;1.23;;;15.50;99.90;;;;;;5016233;28;20871;-69
2022/01/06 12:59:34;;;;;;;2.40;1.13;;;15.50;99.90;;;;;;5028572;28;20705;-69
2022/01/06 13:02:21;;;;;;;3.40;1.17;;;15.40;99.90;;;;;;5036361;28;20286;-69
2022/01/06 13:04:51;;;;;;;3.97;1.30;;;15.40;99.90;;;;;;5033794;28;20194;-69
2022/01/06 13:07:18;;;;;;;3.57;1.00;;;15.40;99.90;;;;;;5019990;28;20290;-69
2022/01/06 13:09:47;;;;;;;6.53;1.17;;;15.30;99.90;;;;;;5028243;28;20951;-69